sensor_id;sensor_type;location;lat;lon;timestamp;P1;durP1;ratioP1;P2;durP2;ratioP2
17812;SDS011;9030;50.792;8.320;2023-10-19T00:00:30;11.17;;;7.97;;
17812;SDS011;9030;50.792;8.320;2023-10-19T00:02:58;10.43;;;7.37;;
17812;SDS011;9030;50.792;8.320;2023-10-19T00:05:27;12.40;;;9.37;;
17812;SDS011;9030;50.792;8.320;2023-10-19T00:07:56;12.57;;;8.80;;
17812;SDS011;9030;50.792;8.320;2023-10-19T00:10:24;12.20;;;7.47;;
17812;SDS011;9030;50.792;8.320;2023-10-19T00:12:54;12.93;;;7.20;;
17812;SDS011;9030;50.792;8.320;2023-10-19T00:15:25;10.93;;;6.43;;
17812;SDS011;9030;50.792;8.320;2023-10-19T00:17:55;10.33;;;6.83;;
17812;SDS011;9030;50.792;8.320;2023-10-19T00:20:21;11.27;;;6.50;;
17812;SDS011;9030;50.792;8.320;2023-10-19T00:23:03;9.93;;;6.40;;
17812;SDS011;9030;50.792;8.320;2023-10-19T00:25:31;9.67;;;7.37;;
17812;SDS011;9030;50.792;8.320;2023-10-19T00:27:59;10.20;;;6.77;;
17812;SDS011;9030;50.792;8.320;2023-10-19T00:30:29;10.07;;;6.67;;
17812;SDS011;9030;50.792;8.320;2023-10-19T00:32:57;10.13;;;6.17;;
17812;SDS011;9030;50.792;8.320;2023-10-19T00:35:29;9.60;;;6.30;;
17812;SDS011;9030;50.792;8.320;2023-10-19T00:38:00;10.03;;;6.57;;
17812;SDS011;9030;50.792;8.320;2023-10-19T00:40:51;9.70;;;6.27;;
17812;SDS011;9030;50.792;8.320;2023-10-19T00:43:28;9.40;;;6.03;;
17812;SDS011;9030;50.792;8.320;2023-10-19T00:45:57;10.93;;;6.93;;
17812;SDS011;9030;50.792;8.320;2023-10-19T00:48:26;8.47;;;5.93;;
17812;SDS011;9030;50.792;8.320;2023-10-19T00:50:54;10.50;;;6.27;;
17812;SDS011;9030;50.792;8.320;2023-10-19T00:53:32;12.30;;;6.83;;
17812;SDS011;9030;50.792;8.320;2023-10-19T00:56:01;8.97;;;5.73;;
17812;SDS011;9030;50.792;8.320;2023-10-19T00:58:31;10.77;;;6.67;;
17812;SDS011;9030;50.792;8.320;2023-10-19T01:01:01;9.17;;;5.90;;
17812;SDS011;9030;50.792;8.320;2023-10-19T01:03:31;9.70;;;6.80;;
17812;SDS011;9030;50.792;8.320;2023-10-19T01:06:01;9.30;;;6.07;;
17812;SDS011;9030;50.792;8.320;2023-10-19T01:08:34;12.10;;;6.37;;
17812;SDS011;9030;50.792;8.320;2023-10-19T01:11:09;10.43;;;6.17;;
17812;SDS011;9030;50.792;8.320;2023-10-19T01:13:36;9.03;;;5.83;;
17812;SDS011;9030;50.792;8.320;2023-10-19T01:16:03;6.80;;;4.67;;
17812;SDS011;9030;50.792;8.320;2023-10-19T01:18:30;8.47;;;5.73;;
17812;SDS011;9030;50.792;8.320;2023-10-19T01:20:57;10.30;;;6.57;;
17812;SDS011;9030;50.792;8.320;2023-10-19T01:23:28;9.93;;;6.10;;
17812;SDS011;9030;50.792;8.320;2023-10-19T01:25:57;8.40;;;5.70;;
17812;SDS011;9030;50.792;8.320;2023-10-19T01:28:27;10.07;;;5.80;;
17812;SDS011;9030;50.792;8.320;2023-10-19T01:31:07;8.53;;;5.60;;
17812;SDS011;9030;50.792;8.320;2023-10-19T01:33:39;10.53;;;6.43;;
17812;SDS011;9030;50.792;8.320;2023-10-19T01:36:07;8.77;;;5.57;;
17812;SDS011;9030;50.792;8.320;2023-10-19T01:38:37;7.17;;;4.93;;
17812;SDS011;9030;50.792;8.320;2023-10-19T01:41:04;7.90;;;4.87;;
17812;SDS011;9030;50.792;8.320;2023-10-19T01:43:33;7.00;;;4.43;;
17812;SDS011;9030;50.792;8.320;2023-10-19T01:46:01;9.80;;;5.90;;
17812;SDS011;9030;50.792;8.320;2023-10-19T01:48:30;9.97;;;6.50;;
17812;SDS011;9030;50.792;8.320;2023-10-19T01:50:58;9.37;;;6.67;;
17812;SDS011;9030;50.792;8.320;2023-10-19T01:53:24;9.77;;;6.33;;
17812;SDS011;9030;50.792;8.320;2023-10-19T01:55:53;8.13;;;5.37;;
17812;SDS011;9030;50.792;8.320;2023-10-19T01:58:23;6.27;;;4.53;;
17812;SDS011;9030;50.792;8.320;2023-10-19T02:00:50;8.47;;;4.80;;
17812;SDS011;9030;50.792;8.320;2023-10-19T02:03:19;8.70;;;4.70;;
17812;SDS011;9030;50.792;8.320;2023-10-19T02:05:46;8.37;;;4.53;;
17812;SDS011;9030;50.792;8.320;2023-10-19T02:08:15;10.67;;;6.90;;
17812;SDS011;9030;50.792;8.320;2023-10-19T02:10:45;10.33;;;6.53;;
17812;SDS011;9030;50.792;8.320;2023-10-19T02:13:14;9.33;;;6.63;;
17812;SDS011;9030;50.792;8.320;2023-10-19T02:15:42;10.57;;;7.30;;
17812;SDS011;9030;50.792;8.320;2023-10-19T02:18:08;10.97;;;7.97;;
17812;SDS011;9030;50.792;8.320;2023-10-19T02:20:35;11.83;;;8.40;;
17812;SDS011;9030;50.792;8.320;2023-10-19T02:23:05;13.17;;;8.37;;
17812;SDS011;9030;50.792;8.320;2023-10-19T02:25:32;13.37;;;9.27;;
17812;SDS011;9030;50.792;8.320;2023-10-19T02:28:01;12.60;;;8.40;;
17812;SDS011;9030;50.792;8.320;2023-10-19T02:30:30;10.13;;;7.23;;
17812;SDS011;9030;50.792;8.320;2023-10-19T02:32:56;12.40;;;7.63;;
17812;SDS011;9030;50.792;8.320;2023-10-19T02:35:23;11.43;;;7.03;;
17812;SDS011;9030;50.792;8.320;2023-10-19T02:37:48;10.97;;;6.70;;
17812;SDS011;9030;50.792;8.320;2023-10-19T02:40:15;10.20;;;7.07;;
17812;SDS011;9030;50.792;8.320;2023-10-19T02:42:44;15.03;;;9.30;;
17812;SDS011;9030;50.792;8.320;2023-10-19T02:45:13;10.03;;;6.67;;
17812;SDS011;9030;50.792;8.320;2023-10-19T02:47:42;11.50;;;7.30;;
17812;SDS011;9030;50.792;8.320;2023-10-19T02:50:10;13.03;;;8.50;;
17812;SDS011;9030;50.792;8.320;2023-10-19T02:52:38;10.57;;;7.10;;
17812;SDS011;9030;50.792;8.320;2023-10-19T02:55:07;10.27;;;7.33;;
17812;SDS011;9030;50.792;8.320;2023-10-19T02:57:34;10.13;;;6.73;;
17812;SDS011;9030;50.792;8.320;2023-10-19T03:00:01;10.77;;;7.87;;
17812;SDS011;9030;50.792;8.320;2023-10-19T03:02:33;10.33;;;7.63;;
17812;SDS011;9030;50.792;8.320;2023-10-19T03:05:03;10.90;;;7.03;;
17812;SDS011;9030;50.792;8.320;2023-10-19T03:07:37;11.93;;;6.30;;
17812;SDS011;9030;50.792;8.320;2023-10-19T03:10:05;8.50;;;5.43;;
17812;SDS011;9030;50.792;8.320;2023-10-19T03:12:31;7.43;;;4.67;;
17812;SDS011;9030;50.792;8.320;2023-10-19T03:14:58;5.80;;;3.53;;
17812;SDS011;9030;50.792;8.320;2023-10-19T03:17:25;10.43;;;4.33;;
17812;SDS011;9030;50.792;8.320;2023-10-19T03:19:54;6.50;;;4.27;;
17812;SDS011;9030;50.792;8.320;2023-10-19T03:22:22;12.07;;;9.03;;
17812;SDS011;9030;50.792;8.320;2023-10-19T03:24:48;5.83;;;4.00;;
17812;SDS011;9030;50.792;8.320;2023-10-19T03:27:23;8.53;;;5.03;;
17812;SDS011;9030;50.792;8.320;2023-10-19T03:29:51;8.77;;;5.87;;
17812;SDS011;9030;50.792;8.320;2023-10-19T03:32:20;9.63;;;5.93;;
17812;SDS011;9030;50.792;8.320;2023-10-19T03:34:51;9.33;;;6.03;;
17812;SDS011;9030;50.792;8.320;2023-10-19T03:37:22;12.77;;;8.50;;
17812;SDS011;9030;50.792;8.320;2023-10-19T03:39:50;14.63;;;9.97;;
17812;SDS011;9030;50.792;8.320;2023-10-19T03:42:16;11.07;;;7.37;;
17812;SDS011;9030;50.792;8.320;2023-10-19T03:44:46;12.87;;;8.60;;
17812;SDS011;9030;50.792;8.320;2023-10-19T03:47:18;14.60;;;10.73;;
17812;SDS011;9030;50.792;8.320;2023-10-19T03:49:45;16.90;;;11.30;;
17812;SDS011;9030;50.792;8.320;2023-10-19T03:52:13;11.80;;;7.60;;
17812;SDS011;9030;50.792;8.320;2023-10-19T03:54:47;13.47;;;8.80;;
17812;SDS011;9030;50.792;8.320;2023-10-19T03:57:15;11.57;;;8.60;;
17812;SDS011;9030;50.792;8.320;2023-10-19T03:59:47;13.60;;;10.00;;
17812;SDS011;9030;50.792;8.320;2023-10-19T04:02:17;17.57;;;11.53;;
17812;SDS011;9030;50.792;8.320;2023-10-19T04:04:45;15.17;;;10.47;;
17812;SDS011;9030;50.792;8.320;2023-10-19T04:07:13;17.00;;;11.33;;
17812;SDS011;9030;50.792;8.320;2023-10-19T04:09:45;16.07;;;11.37;;
17812;SDS011;9030;50.792;8.320;2023-10-19T04:12:25;18.87;;;13.97;;
17812;SDS011;9030;50.792;8.320;2023-10-19T04:14:53;19.23;;;14.13;;
17812;SDS011;9030;50.792;8.320;2023-10-19T04:17:20;18.43;;;13.60;;
17812;SDS011;9030;50.792;8.320;2023-10-19T04:19:49;20.33;;;15.00;;
17812;SDS011;9030;50.792;8.320;2023-10-19T04:22:16;21.60;;;15.43;;
17812;SDS011;9030;50.792;8.320;2023-10-19T04:24:49;22.03;;;15.90;;
17812;SDS011;9030;50.792;8.320;2023-10-19T04:27:16;21.00;;;17.17;;
17812;SDS011;9030;50.792;8.320;2023-10-19T04:29:46;21.50;;;15.53;;
17812;SDS011;9030;50.792;8.320;2023-10-19T04:32:14;21.10;;;17.23;;
17812;SDS011;9030;50.792;8.320;2023-10-19T04:34:48;21.83;;;16.77;;
17812;SDS011;9030;50.792;8.320;2023-10-19T04:37:15;24.30;;;17.47;;
17812;SDS011;9030;50.792;8.320;2023-10-19T04:39:43;25.43;;;19.93;;
17812;SDS011;9030;50.792;8.320;2023-10-19T04:42:11;24.67;;;17.77;;
17812;SDS011;9030;50.792;8.320;2023-10-19T04:44:39;26.00;;;20.43;;
17812;SDS011;9030;50.792;8.320;2023-10-19T04:47:06;27.07;;;17.13;;
17812;SDS011;9030;50.792;8.320;2023-10-19T04:49:32;27.50;;;21.10;;
17812;SDS011;9030;50.792;8.320;2023-10-19T04:51:59;33.03;;;23.13;;
17812;SDS011;9030;50.792;8.320;2023-10-19T04:54:26;36.03;;;21.60;;
17812;SDS011;9030;50.792;8.320;2023-10-19T04:56:53;28.40;;;19.10;;
17812;SDS011;9030;50.792;8.320;2023-10-19T04:59:22;29.97;;;19.53;;
17812;SDS011;9030;50.792;8.320;2023-10-19T05:01:48;27.93;;;18.27;;
17812;SDS011;9030;50.792;8.320;2023-10-19T05:04:16;28.90;;;19.90;;
17812;SDS011;9030;50.792;8.320;2023-10-19T05:06:44;39.17;;;22.13;;
17812;SDS011;9030;50.792;8.320;2023-10-19T05:09:11;32.50;;;21.37;;
17812;SDS011;9030;50.792;8.320;2023-10-19T05:11:38;37.73;;;26.13;;
17812;SDS011;9030;50.792;8.320;2023-10-19T05:14:05;31.77;;;23.43;;
17812;SDS011;9030;50.792;8.320;2023-10-19T05:16:33;29.53;;;22.73;;
17812;SDS011;9030;50.792;8.320;2023-10-19T05:18:59;28.00;;;22.00;;
17812;SDS011;9030;50.792;8.320;2023-10-19T05:21:29;32.17;;;24.23;;
17812;SDS011;9030;50.792;8.320;2023-10-19T05:23:55;34.43;;;24.57;;
17812;SDS011;9030;50.792;8.320;2023-10-19T05:26:25;29.77;;;21.73;;
17812;SDS011;9030;50.792;8.320;2023-10-19T05:28:52;35.43;;;22.83;;
17812;SDS011;9030;50.792;8.320;2023-10-19T05:31:19;31.37;;;24.57;;
17812;SDS011;9030;50.792;8.320;2023-10-19T05:33:47;32.60;;;22.77;;
17812;SDS011;9030;50.792;8.320;2023-10-19T05:36:14;30.03;;;23.37;;
17812;SDS011;9030;50.792;8.320;2023-10-19T05:38:42;40.10;;;25.63;;
17812;SDS011;9030;50.792;8.320;2023-10-19T05:41:09;33.73;;;28.70;;
17812;SDS011;9030;50.792;8.320;2023-10-19T05:43:37;28.47;;;21.50;;
17812;SDS011;9030;50.792;8.320;2023-10-19T05:46:04;23.17;;;17.13;;
17812;SDS011;9030;50.792;8.320;2023-10-19T05:48:30;22.23;;;17.37;;
17812;SDS011;9030;50.792;8.320;2023-10-19T05:50:59;25.40;;;18.40;;
17812;SDS011;9030;50.792;8.320;2023-10-19T05:53:25;33.03;;;27.07;;
17812;SDS011;9030;50.792;8.320;2023-10-19T05:55:52;30.83;;;23.90;;
17812;SDS011;9030;50.792;8.320;2023-10-19T05:58:18;35.43;;;21.10;;
17812;SDS011;9030;50.792;8.320;2023-10-19T06:00:45;30.47;;;21.73;;
17812;SDS011;9030;50.792;8.320;2023-10-19T06:03:12;32.90;;;24.70;;
17812;SDS011;9030;50.792;8.320;2023-10-19T06:05:39;31.07;;;24.27;;
17812;SDS011;9030;50.792;8.320;2023-10-19T06:08:07;31.07;;;23.60;;
17812;SDS011;9030;50.792;8.320;2023-10-19T06:10:34;23.23;;;18.93;;
17812;SDS011;9030;50.792;8.320;2023-10-19T06:13:04;24.23;;;18.05;;
17812;SDS011;9030;50.792;8.320;2023-10-19T06:15:34;23.00;;;17.20;;
17812;SDS011;9030;50.792;8.320;2023-10-19T06:18:02;23.80;;;18.60;;
17812;SDS011;9030;50.792;8.320;2023-10-19T06:20:29;32.77;;;24.97;;
17812;SDS011;9030;50.792;8.320;2023-10-19T06:22:56;33.67;;;23.20;;
17812;SDS011;9030;50.792;8.320;2023-10-19T06:25:30;24.57;;;18.23;;
17812;SDS011;9030;50.792;8.320;2023-10-19T06:27:59;24.43;;;18.80;;
17812;SDS011;9030;50.792;8.320;2023-10-19T06:30:26;26.13;;;20.97;;
17812;SDS011;9030;50.792;8.320;2023-10-19T06:32:54;24.73;;;19.00;;
17812;SDS011;9030;50.792;8.320;2023-10-19T06:35:22;28.77;;;18.90;;
17812;SDS011;9030;50.792;8.320;2023-10-19T06:37:49;33.10;;;20.87;;
17812;SDS011;9030;50.792;8.320;2023-10-19T06:40:16;34.37;;;21.80;;
17812;SDS011;9030;50.792;8.320;2023-10-19T06:42:45;31.90;;;21.53;;
17812;SDS011;9030;50.792;8.320;2023-10-19T06:45:12;23.37;;;18.20;;
17812;SDS011;9030;50.792;8.320;2023-10-19T06:47:40;24.23;;;16.73;;
17812;SDS011;9030;50.792;8.320;2023-10-19T06:50:08;23.63;;;18.10;;
17812;SDS011;9030;50.792;8.320;2023-10-19T06:52:35;25.23;;;16.83;;
17812;SDS011;9030;50.792;8.320;2023-10-19T06:55:02;25.53;;;16.80;;
17812;SDS011;9030;50.792;8.320;2023-10-19T06:57:29;29.23;;;21.43;;
17812;SDS011;9030;50.792;8.320;2023-10-19T06:59:57;33.27;;;23.57;;
17812;SDS011;9030;50.792;8.320;2023-10-19T07:02:24;28.60;;;20.53;;
17812;SDS011;9030;50.792;8.320;2023-10-19T07:04:51;28.93;;;20.50;;
17812;SDS011;9030;50.792;8.320;2023-10-19T07:07:18;27.73;;;18.67;;
17812;SDS011;9030;50.792;8.320;2023-10-19T07:09:44;28.17;;;18.53;;
17812;SDS011;9030;50.792;8.320;2023-10-19T07:12:11;34.45;;;21.45;;
17812;SDS011;9030;50.792;8.320;2023-10-19T07:14:38;26.45;;;19.23;;
17812;SDS011;9030;50.792;8.320;2023-10-19T07:17:07;29.50;;;21.47;;
17812;SDS011;9030;50.792;8.320;2023-10-19T07:19:34;29.50;;;21.90;;
17812;SDS011;9030;50.792;8.320;2023-10-19T07:22:01;30.03;;;21.03;;
17812;SDS011;9030;50.792;8.320;2023-10-19T07:24:29;30.52;;;22.27;;
17812;SDS011;9030;50.792;8.320;2023-10-19T07:26:56;33.93;;;23.80;;
17812;SDS011;9030;50.792;8.320;2023-10-19T07:29:29;27.20;;;21.98;;
17812;SDS011;9030;50.792;8.320;2023-10-19T07:31:57;39.13;;;22.77;;
17812;SDS011;9030;50.792;8.320;2023-10-19T07:34:25;33.07;;;22.60;;
17812;SDS011;9030;50.792;8.320;2023-10-19T07:36:54;31.02;;;24.58;;
17812;SDS011;9030;50.792;8.320;2023-10-19T07:39:24;31.67;;;23.60;;
17812;SDS011;9030;50.792;8.320;2023-10-19T07:41:51;42.53;;;37.60;;
17812;SDS011;9030;50.792;8.320;2023-10-19T07:44:18;39.33;;;24.95;;
17812;SDS011;9030;50.792;8.320;2023-10-19T07:46:45;57.70;;;30.85;;
17812;SDS011;9030;50.792;8.320;2023-10-19T07:49:11;31.52;;;22.20;;
17812;SDS011;9030;50.792;8.320;2023-10-19T07:51:42;38.47;;;23.80;;
17812;SDS011;9030;50.792;8.320;2023-10-19T07:54:11;37.38;;;22.70;;
17812;SDS011;9030;50.792;8.320;2023-10-19T07:56:38;27.13;;;19.45;;
17812;SDS011;9030;50.792;8.320;2023-10-19T07:59:05;35.05;;;21.88;;
17812;SDS011;9030;50.792;8.320;2023-10-19T08:01:32;32.17;;;27.25;;
17812;SDS011;9030;50.792;8.320;2023-10-19T08:03:59;29.27;;;23.88;;
17812;SDS011;9030;50.792;8.320;2023-10-19T08:06:26;33.65;;;24.00;;
17812;SDS011;9030;50.792;8.320;2023-10-19T08:08:54;29.40;;;20.92;;
17812;SDS011;9030;50.792;8.320;2023-10-19T08:11:21;43.50;;;24.13;;
17812;SDS011;9030;50.792;8.320;2023-10-19T08:13:48;34.72;;;22.73;;
17812;SDS011;9030;50.792;8.320;2023-10-19T08:16:14;44.15;;;26.35;;
17812;SDS011;9030;50.792;8.320;2023-10-19T08:18:41;42.50;;;25.42;;
17812;SDS011;9030;50.792;8.320;2023-10-19T08:21:08;33.83;;;23.20;;
17812;SDS011;9030;50.792;8.320;2023-10-19T08:23:35;28.73;;;21.38;;
17812;SDS011;9030;50.792;8.320;2023-10-19T08:26:04;32.83;;;22.17;;
17812;SDS011;9030;50.792;8.320;2023-10-19T08:28:31;28.98;;;20.77;;
17812;SDS011;9030;50.792;8.320;2023-10-19T08:30:58;31.23;;;22.15;;
17812;SDS011;9030;50.792;8.320;2023-10-19T08:33:26;23.90;;;18.08;;
17812;SDS011;9030;50.792;8.320;2023-10-19T08:35:54;25.58;;;17.23;;
17812;SDS011;9030;50.792;8.320;2023-10-19T08:38:21;32.67;;;21.23;;
17812;SDS011;9030;50.792;8.320;2023-10-19T08:40:49;34.03;;;23.23;;
17812;SDS011;9030;50.792;8.320;2023-10-19T08:43:17;33.78;;;22.60;;
17812;SDS011;9030;50.792;8.320;2023-10-19T08:45:44;28.27;;;21.58;;
17812;SDS011;9030;50.792;8.320;2023-10-19T08:48:11;27.38;;;21.10;;
17812;SDS011;9030;50.792;8.320;2023-10-19T08:50:39;30.83;;;21.20;;
17812;SDS011;9030;50.792;8.320;2023-10-19T08:53:06;31.92;;;21.77;;
17812;SDS011;9030;50.792;8.320;2023-10-19T08:55:34;25.10;;;19.45;;
17812;SDS011;9030;50.792;8.320;2023-10-19T08:58:01;28.60;;;19.33;;
17812;SDS011;9030;50.792;8.320;2023-10-19T09:00:39;25.92;;;19.27;;
17812;SDS011;9030;50.792;8.320;2023-10-19T09:03:12;25.13;;;16.73;;
17812;SDS011;9030;50.792;8.320;2023-10-19T09:05:39;22.92;;;17.30;;
17812;SDS011;9030;50.792;8.320;2023-10-19T09:08:06;20.98;;;15.02;;
17812;SDS011;9030;50.792;8.320;2023-10-19T09:10:34;23.55;;;15.93;;
17812;SDS011;9030;50.792;8.320;2023-10-19T09:13:02;18.08;;;13.70;;
17812;SDS011;9030;50.792;8.320;2023-10-19T09:15:34;18.38;;;13.75;;
17812;SDS011;9030;50.792;8.320;2023-10-19T09:18:11;18.10;;;12.25;;
17812;SDS011;9030;50.792;8.320;2023-10-19T09:20:39;21.40;;;15.55;;
17812;SDS011;9030;50.792;8.320;2023-10-19T09:23:06;18.27;;;14.20;;
17812;SDS011;9030;50.792;8.320;2023-10-19T09:25:33;17.65;;;14.15;;
17812;SDS011;9030;50.792;8.320;2023-10-19T09:28:01;18.58;;;13.32;;
17812;SDS011;9030;50.792;8.320;2023-10-19T09:30:28;20.05;;;13.20;;
17812;SDS011;9030;50.792;8.320;2023-10-19T09:32:58;19.55;;;14.25;;
17812;SDS011;9030;50.792;8.320;2023-10-19T09:35:26;17.33;;;13.15;;
17812;SDS011;9030;50.792;8.320;2023-10-19T09:37:56;17.80;;;13.65;;
17812;SDS011;9030;50.792;8.320;2023-10-19T09:40:24;19.90;;;13.40;;
17812;SDS011;9030;50.792;8.320;2023-10-19T09:42:54;15.05;;;12.23;;
17812;SDS011;9030;50.792;8.320;2023-10-19T09:45:24;17.48;;;15.15;;
17812;SDS011;9030;50.792;8.320;2023-10-19T09:47:56;19.08;;;15.00;;
17812;SDS011;9030;50.792;8.320;2023-10-19T09:50:26;16.48;;;13.10;;
17812;SDS011;9030;50.792;8.320;2023-10-19T09:52:54;17.95;;;13.00;;
17812;SDS011;9030;50.792;8.320;2023-10-19T09:55:22;18.00;;;12.85;;
17812;SDS011;9030;50.792;8.320;2023-10-19T09:57:55;18.33;;;14.25;;
17812;SDS011;9030;50.792;8.320;2023-10-19T10:00:27;16.75;;;13.30;;
17812;SDS011;9030;50.792;8.320;2023-10-19T10:02:58;18.20;;;13.05;;
17812;SDS011;9030;50.792;8.320;2023-10-19T10:05:46;14.57;;;11.07;;
17812;SDS011;9030;50.792;8.320;2023-10-19T10:08:29;14.68;;;11.32;;
17812;SDS011;9030;50.792;8.320;2023-10-19T10:10:56;17.20;;;12.35;;
17812;SDS011;9030;50.792;8.320;2023-10-19T10:13:36;16.40;;;12.18;;
17812;SDS011;9030;50.792;8.320;2023-10-19T10:16:02;16.85;;;10.80;;
17812;SDS011;9030;50.792;8.320;2023-10-19T10:18:31;17.88;;;12.23;;
17812;SDS011;9030;50.792;8.320;2023-10-19T10:21:05;14.57;;;12.65;;
17812;SDS011;9030;50.792;8.320;2023-10-19T10:23:35;14.00;;;9.85;;
17812;SDS011;9030;50.792;8.320;2023-10-19T10:26:07;14.07;;;10.20;;
17812;SDS011;9030;50.792;8.320;2023-10-19T10:28:34;14.13;;;9.80;;
17812;SDS011;9030;50.792;8.320;2023-10-19T10:31:08;14.52;;;9.98;;
17812;SDS011;9030;50.792;8.320;2023-10-19T10:33:47;13.95;;;8.95;;
17812;SDS011;9030;50.792;8.320;2023-10-19T10:36:16;13.18;;;9.43;;
17812;SDS011;9030;50.792;8.320;2023-10-19T10:38:44;17.15;;;10.65;;
17812;SDS011;9030;50.792;8.320;2023-10-19T10:41:11;14.30;;;8.40;;
17812;SDS011;9030;50.792;8.320;2023-10-19T10:43:48;14.35;;;8.68;;
17812;SDS011;9030;50.792;8.320;2023-10-19T10:46:19;17.05;;;9.38;;
17812;SDS011;9030;50.792;8.320;2023-10-19T10:48:48;15.20;;;9.15;;
17812;SDS011;9030;50.792;8.320;2023-10-19T10:51:17;15.13;;;8.40;;
17812;SDS011;9030;50.792;8.320;2023-10-19T10:53:48;11.07;;;8.45;;
17812;SDS011;9030;50.792;8.320;2023-10-19T10:56:16;15.68;;;9.30;;
17812;SDS011;9030;50.792;8.320;2023-10-19T10:58:43;13.85;;;9.75;;
17812;SDS011;9030;50.792;8.320;2023-10-19T11:01:10;17.17;;;11.73;;
17812;SDS011;9030;50.792;8.320;2023-10-19T11:03:38;18.13;;;10.82;;
17812;SDS011;9030;50.792;8.320;2023-10-19T11:06:06;17.88;;;11.10;;
17812;SDS011;9030;50.792;8.320;2023-10-19T11:08:34;16.65;;;12.23;;
17812;SDS011;9030;50.792;8.320;2023-10-19T11:11:02;15.10;;;9.60;;
17812;SDS011;9030;50.792;8.320;2023-10-19T11:13:30;16.70;;;11.00;;
17812;SDS011;9030;50.792;8.320;2023-10-19T11:16:00;15.80;;;9.07;;
17812;SDS011;9030;50.792;8.320;2023-10-19T11:18:31;19.20;;;9.45;;
17812;SDS011;9030;50.792;8.320;2023-10-19T11:21:00;17.73;;;9.82;;
17812;SDS011;9030;50.792;8.320;2023-10-19T11:23:41;16.58;;;9.88;;
17812;SDS011;9030;50.792;8.320;2023-10-19T11:26:08;21.33;;;9.52;;
17812;SDS011;9030;50.792;8.320;2023-10-19T11:28:36;17.75;;;9.32;;
17812;SDS011;9030;50.792;8.320;2023-10-19T11:31:14;17.40;;;9.60;;
17812;SDS011;9030;50.792;8.320;2023-10-19T11:33:42;15.82;;;9.13;;
17812;SDS011;9030;50.792;8.320;2023-10-19T11:36:10;15.18;;;9.88;;
17812;SDS011;9030;50.792;8.320;2023-10-19T11:38:40;18.00;;;12.55;;
17812;SDS011;9030;50.792;8.320;2023-10-19T11:41:08;20.08;;;11.88;;
17812;SDS011;9030;50.792;8.320;2023-10-19T11:43:35;17.83;;;10.60;;
17812;SDS011;9030;50.792;8.320;2023-10-19T11:46:02;13.02;;;6.90;;
17812;SDS011;9030;50.792;8.320;2023-10-19T11:48:30;11.85;;;7.05;;
17812;SDS011;9030;50.792;8.320;2023-10-19T11:50:58;14.13;;;8.18;;
17812;SDS011;9030;50.792;8.320;2023-10-19T11:53:25;13.82;;;7.25;;
17812;SDS011;9030;50.792;8.320;2023-10-19T11:55:56;16.45;;;8.52;;
17812;SDS011;9030;50.792;8.320;2023-10-19T11:58:23;12.25;;;7.63;;
17812;SDS011;9030;50.792;8.320;2023-10-19T12:00:49;11.68;;;6.03;;
17812;SDS011;9030;50.792;8.320;2023-10-19T12:03:16;16.85;;;7.78;;
17812;SDS011;9030;50.792;8.320;2023-10-19T12:05:45;17.27;;;6.57;;
17812;SDS011;9030;50.792;8.320;2023-10-19T12:08:11;14.45;;;6.63;;
17812;SDS011;9030;50.792;8.320;2023-10-19T12:10:38;14.52;;;5.70;;
17812;SDS011;9030;50.792;8.320;2023-10-19T12:13:06;17.38;;;15.25;;
17812;SDS011;9030;50.792;8.320;2023-10-19T12:15:34;13.02;;;6.53;;
17812;SDS011;9030;50.792;8.320;2023-10-19T12:18:01;12.68;;;7.32;;
17812;SDS011;9030;50.792;8.320;2023-10-19T12:20:28;12.27;;;6.78;;
17812;SDS011;9030;50.792;8.320;2023-10-19T12:22:56;12.70;;;6.15;;
17812;SDS011;9030;50.792;8.320;2023-10-19T12:25:23;12.75;;;6.57;;
17812;SDS011;9030;50.792;8.320;2023-10-19T12:27:54;17.58;;;6.97;;
17812;SDS011;9030;50.792;8.320;2023-10-19T12:30:23;9.30;;;5.60;;
17812;SDS011;9030;50.792;8.320;2023-10-19T12:32:56;17.80;;;6.00;;
17812;SDS011;9030;50.792;8.320;2023-10-19T12:35:26;15.85;;;7.72;;
17812;SDS011;9030;50.792;8.320;2023-10-19T12:38:07;12.07;;;6.18;;
17812;SDS011;9030;50.792;8.320;2023-10-19T12:40:40;14.55;;;7.05;;
17812;SDS011;9030;50.792;8.320;2023-10-19T12:43:07;13.25;;;7.47;;
17812;SDS011;9030;50.792;8.320;2023-10-19T12:45:37;15.63;;;6.82;;
17812;SDS011;9030;50.792;8.320;2023-10-19T12:48:04;15.43;;;7.63;;
17812;SDS011;9030;50.792;8.320;2023-10-19T12:50:31;12.65;;;6.65;;
17812;SDS011;9030;50.792;8.320;2023-10-19T12:52:59;10.68;;;5.95;;
17812;SDS011;9030;50.792;8.320;2023-10-19T12:55:26;13.65;;;7.15;;
17812;SDS011;9030;50.792;8.320;2023-10-19T12:57:53;19.83;;;6.95;;
17812;SDS011;9030;50.792;8.320;2023-10-19T13:00:21;15.25;;;6.90;;
17812;SDS011;9030;50.792;8.320;2023-10-19T13:02:55;11.80;;;6.88;;
17812;SDS011;9030;50.792;8.320;2023-10-19T13:05:26;12.90;;;6.38;;
17812;SDS011;9030;50.792;8.320;2023-10-19T13:07:53;13.18;;;6.20;;
17812;SDS011;9030;50.792;8.320;2023-10-19T13:10:23;11.35;;;6.50;;
17812;SDS011;9030;50.792;8.320;2023-10-19T13:12:54;17.40;;;6.88;;
17812;SDS011;9030;50.792;8.320;2023-10-19T13:15:21;15.93;;;10.63;;
17812;SDS011;9030;50.792;8.320;2023-10-19T13:17:51;16.15;;;9.57;;
17812;SDS011;9030;50.792;8.320;2023-10-19T13:20:19;15.25;;;10.88;;
17812;SDS011;9030;50.792;8.320;2023-10-19T13:22:45;16.38;;;12.60;;
17812;SDS011;9030;50.792;8.320;2023-10-19T13:25:12;27.17;;;11.90;;
17812;SDS011;9030;50.792;8.320;2023-10-19T13:27:42;14.38;;;9.45;;
17812;SDS011;9030;50.792;8.320;2023-10-19T13:30:09;16.58;;;11.48;;
17812;SDS011;9030;50.792;8.320;2023-10-19T13:32:39;19.40;;;12.80;;
17812;SDS011;9030;50.792;8.320;2023-10-19T13:35:06;19.30;;;12.50;;
17812;SDS011;9030;50.792;8.320;2023-10-19T13:37:35;19.90;;;12.85;;
17812;SDS011;9030;50.792;8.320;2023-10-19T13:40:02;21.30;;;13.38;;
17812;SDS011;9030;50.792;8.320;2023-10-19T13:42:31;22.88;;;14.60;;
17812;SDS011;9030;50.792;8.320;2023-10-19T13:44:59;19.98;;;14.10;;
17812;SDS011;9030;50.792;8.320;2023-10-19T13:47:26;21.38;;;15.32;;
17812;SDS011;9030;50.792;8.320;2023-10-19T13:49:53;21.48;;;15.57;;
17812;SDS011;9030;50.792;8.320;2023-10-19T13:52:19;18.40;;;15.18;;
17812;SDS011;9030;50.792;8.320;2023-10-19T13:54:47;18.48;;;16.15;;
17812;SDS011;9030;50.792;8.320;2023-10-19T13:57:14;19.80;;;16.50;;
17812;SDS011;9030;50.792;8.320;2023-10-19T13:59:41;19.92;;;16.77;;
17812;SDS011;9030;50.792;8.320;2023-10-19T14:02:08;19.48;;;17.13;;
17812;SDS011;9030;50.792;8.320;2023-10-19T14:04:35;18.88;;;16.88;;
17812;SDS011;9030;50.792;8.320;2023-10-19T14:07:02;24.65;;;17.42;;
17812;SDS011;9030;50.792;8.320;2023-10-19T14:09:29;24.08;;;16.98;;
17812;SDS011;9030;50.792;8.320;2023-10-19T14:11:58;23.65;;;17.02;;
17812;SDS011;9030;50.792;8.320;2023-10-19T14:14:24;20.50;;;18.20;;
17812;SDS011;9030;50.792;8.320;2023-10-19T14:16:52;22.63;;;18.08;;
17812;SDS011;9030;50.792;8.320;2023-10-19T14:19:18;21.80;;;18.70;;
17812;SDS011;9030;50.792;8.320;2023-10-19T14:21:45;19.55;;;16.63;;
17812;SDS011;9030;50.792;8.320;2023-10-19T14:24:13;18.50;;;16.42;;
17812;SDS011;9030;50.792;8.320;2023-10-19T14:26:39;20.17;;;17.08;;
17812;SDS011;9030;50.792;8.320;2023-10-19T14:29:09;22.25;;;17.42;;
17812;SDS011;9030;50.792;8.320;2023-10-19T14:31:37;22.30;;;16.50;;
17812;SDS011;9030;50.792;8.320;2023-10-19T14:34:03;16.38;;;14.68;;
17812;SDS011;9030;50.792;8.320;2023-10-19T14:36:30;21.63;;;15.52;;
17812;SDS011;9030;50.792;8.320;2023-10-19T14:38:57;23.23;;;15.65;;
17812;SDS011;9030;50.792;8.320;2023-10-19T14:41:23;24.23;;;17.88;;
17812;SDS011;9030;50.792;8.320;2023-10-19T14:43:50;24.63;;;17.90;;
17812;SDS011;9030;50.792;8.320;2023-10-19T14:46:18;20.15;;;18.05;;
17812;SDS011;9030;50.792;8.320;2023-10-19T14:48:45;25.25;;;22.52;;